createdAt,value
2023-05-10T00:02:11.820Z,102223.22
2023-05-10T00:05:12.684Z,102230.34
2023-05-10T00:08:13.710Z,102219.06
2023-05-10T00:11:14.704Z,102230.72
2023-05-10T00:14:15.725Z,102227.06
2023-05-10T00:17:16.675Z,102225.31
2023-05-10T00:20:18.163Z,102229.72
2023-05-10T00:23:18.673Z,102229.00
2023-05-10T00:26:19.737Z,102230.34
2023-05-10T00:29:22.675Z,102236.91
2023-05-10T00:32:24.003Z,102230.53
2023-05-10T00:35:24.679Z,102231.25
2023-05-10T00:38:25.722Z,102235.25
2023-05-10T00:41:26.656Z,102231.75
2023-05-10T00:44:28.716Z,102239.75
2023-05-10T00:47:29.720Z,102232.91
2023-05-10T00:50:30.766Z,102231.56
2023-05-10T00:53:31.671Z,102226.69
2023-05-10T00:56:32.751Z,102233.66
2023-05-10T00:59:33.657Z,102230.38
2023-05-10T01:02:34.788Z,102226.69
2023-05-10T01:05:35.700Z,102220.91
2023-05-10T01:08:36.726Z,102227.25
2023-05-10T01:11:37.687Z,102225.53
2023-05-10T01:14:39.705Z,102225.72
2023-05-10T01:17:40.709Z,102223.78
2023-05-10T01:20:54.707Z,102231.91
2023-05-10T01:23:55.684Z,102234.63
2023-05-10T01:27:01.688Z,102225.91
2023-05-10T01:30:22.333Z,102231.56
2023-05-10T01:33:33.772Z,102234.41
2023-05-10T01:36:45.678Z,102228.06
2023-05-10T01:39:51.702Z,102236.78
2023-05-10T01:42:57.882Z,102232.91
2023-05-10T01:46:05.746Z,102238.94
2023-05-10T01:49:08.694Z,102239.91
2023-05-10T01:52:13.718Z,102235.81
2023-05-10T01:55:19.697Z,102238.31
2023-05-10T01:58:22.726Z,102236.78
2023-05-10T02:01:24.656Z,102239.41
2023-05-10T02:04:27.706Z,102231.81
2023-05-10T02:07:28.675Z,102234.47
2023-05-10T02:10:29.712Z,102244.91
2023-05-10T02:13:31.726Z,102230.53
2023-05-10T02:16:34.768Z,102240.66
2023-05-10T02:19:36.656Z,102239.28
2023-05-10T02:22:38.704Z,102227.66
2023-05-10T02:25:39.688Z,102239.59
2023-05-10T02:28:41.708Z,102246.44
2023-05-10T02:31:42.658Z,102245.59
2023-05-10T02:34:44.859Z,102236.56
2023-05-10T02:37:45.657Z,102238.13
2023-05-10T02:40:46.706Z,102243.56
2023-05-10T02:43:47.655Z,102243.94
2023-05-10T02:46:48.705Z,102243.84
2023-05-10T02:49:49.664Z,102241.41
2023-05-10T02:53:01.728Z,102234.66
2023-05-10T02:56:05.667Z,102233.66
2023-05-10T02:59:06.700Z,102244.13
2023-05-10T03:02:07.679Z,102244.13
2023-05-10T03:05:08.716Z,102242.94
2023-05-10T03:08:11.678Z,102255.00
2023-05-10T03:11:21.693Z,102246.44
2023-05-10T03:14:31.652Z,102251.53
2023-05-10T03:17:35.780Z,102252.09
2023-05-10T03:20:40.701Z,102249.19
2023-05-10T03:23:55.755Z,102246.44
2023-05-10T03:26:57.697Z,102250.13
2023-05-10T03:29:58.686Z,102248.78
2023-05-10T03:33:01.734Z,102256.75
2023-05-10T03:36:06.734Z,102251.59
2023-05-10T03:39:07.670Z,102248.38
2023-05-10T03:42:08.687Z,102250.75
2023-05-10T03:45:09.654Z,102258.84
2023-05-10T03:48:10.750Z,102252.88
2023-05-10T03:51:11.621Z,102253.25
2023-05-10T03:54:12.698Z,102253.81
2023-05-10T03:57:13.669Z,102260.03
2023-05-10T04:00:14.880Z,102258.66
2023-05-10T04:03:18.772Z,102262.16
2023-05-10T04:06:19.799Z,102261.19
2023-05-10T04:09:20.656Z,102262.53
2023-05-10T04:12:21.683Z,102265.34
2023-05-10T04:15:22.658Z,102257.09
2023-05-10T04:18:23.738Z,102259.81
2023-05-10T04:21:27.632Z,102261.97
2023-05-10T04:24:28.698Z,102260.78
2023-05-10T04:27:29.688Z,102262.53
2023-05-10T04:30:30.745Z,102261.97
2023-05-10T04:33:31.635Z,102258.09
2023-05-10T04:36:32.999Z,102258.69
2023-05-10T04:39:33.673Z,102253.03
2023-05-10T04:42:34.703Z,102264.88
2023-05-10T04:45:35.661Z,102261.09
2023-05-10T04:48:36.717Z,102269.31
2023-05-10T04:51:37.645Z,102267.44
2023-05-10T04:54:38.680Z,102265.34
2023-05-10T04:57:39.662Z,102268.53
2023-05-10T05:00:40.687Z,102268.94
2023-05-10T05:03:41.752Z,102270.81
2023-05-10T05:06:42.703Z,102267.38
2023-05-10T05:09:43.645Z,102273.66
2023-05-10T05:12:44.744Z,102261.09
2023-05-10T05:15:45.658Z,102275.94
2023-05-10T05:18:46.698Z,102266.88
2023-05-10T05:21:47.650Z,102269.84
2023-05-10T05:24:52.684Z,102271.22
2023-05-10T05:27:53.630Z,102274.31
2023-05-10T05:30:54.728Z,102268.09
2023-05-10T05:33:55.651Z,102270.06
2023-05-10T05:36:56.833Z,102277.44
2023-05-10T05:39:57.646Z,102274.47
2023-05-10T05:42:58.682Z,102281.38
2023-05-10T05:45:59.692Z,102282.63
2023-05-10T05:49:00.695Z,102276.84
2023-05-10T05:52:01.629Z,102286.00
2023-05-10T05:55:02.649Z,102279.47
2023-05-10T05:58:03.630Z,102276.34
2023-05-10T06:01:04.647Z,102275.44
2023-05-10T06:04:05.706Z,102271.78
2023-05-10T06:07:06.663Z,102278.28
2023-05-10T06:10:07.643Z,102268.84
2023-05-10T06:13:08.833Z,102270.38
2023-05-10T06:16:09.648Z,102270.16
2023-05-10T06:19:10.670Z,102266.88
2023-05-10T06:22:11.646Z,102271.78
2023-05-10T06:25:12.695Z,102263.06
2023-05-10T06:28:13.785Z,102264.84
2023-05-10T06:31:14.736Z,102263.81
2023-05-10T06:34:15.602Z,102262.69
2023-05-10T06:37:16.882Z,102261.22
2023-05-10T06:40:17.660Z,102264.31
2023-05-10T06:43:18.693Z,102264.41
2023-05-10T06:46:19.725Z,102267.97
2023-05-10T06:49:20.691Z,102268.34
2023-05-10T06:52:21.645Z,102268.72
2023-05-10T06:55:22.696Z,102271.34
2023-05-10T06:58:23.644Z,102272.47
2023-05-10T07:01:24.769Z,102260.16
2023-05-10T07:04:25.694Z,102270.22
2023-05-10T07:07:26.672Z,102272.19
2023-05-10T07:10:27.634Z,102267.16
2023-05-10T07:13:28.783Z,102277.25
2023-05-10T07:16:29.687Z,102284.22
2023-05-10T07:19:30.643Z,102267.94
2023-05-10T07:22:31.630Z,102275.06
2023-05-10T07:25:32.655Z,102278.31
2023-05-10T07:28:33.627Z,102278.56
2023-05-10T07:31:34.657Z,102268.84
2023-05-10T07:34:35.642Z,102280.94
2023-05-10T07:37:36.851Z,102269.38
2023-05-10T07:40:37.639Z,102262.69
2023-05-10T07:43:38.665Z,102259.78
2023-05-10T07:46:39.676Z,102268.00
2023-05-10T07:49:40.704Z,102269.25
2023-05-10T07:52:41.593Z,102271.84
2023-05-10T07:55:42.651Z,102273.44
2023-05-10T07:58:43.660Z,102271.81
2023-05-10T08:01:45.720Z,102264.56
2023-05-10T08:04:46.708Z,102278.88
2023-05-10T08:07:47.655Z,102277.44
2023-05-10T08:10:48.595Z,102272.50
2023-05-10T08:13:49.718Z,102275.03
2023-05-10T08:16:50.624Z,102269.28
2023-05-10T08:19:51.674Z,102272.09
2023-05-10T08:22:52.600Z,102266.59
2023-05-10T08:25:53.661Z,102273.34
2023-05-10T08:28:54.592Z,102265.41
2023-05-10T08:31:55.623Z,102259.06
2023-05-10T08:34:56.596Z,102264.66
2023-05-10T08:37:57.768Z,102260.75
2023-05-10T08:41:02.608Z,102265.41
2023-05-10T08:44:04.652Z,102266.34
2023-05-10T08:47:07.824Z,102258.16
2023-05-10T08:50:08.735Z,102263.63
2023-05-10T08:53:11.701Z,102260.13
2023-05-10T08:56:12.698Z,102268.56
2023-05-10T08:59:13.623Z,102259.66
2023-05-10T09:02:16.667Z,102262.91
2023-05-10T09:05:18.940Z,102263.50
2023-05-10T09:08:20.637Z,102252.25
2023-05-10T09:11:21.626Z,102251.81
2023-05-10T09:14:22.654Z,102241.91
2023-05-10T09:17:24.680Z,102244.56
2023-05-10T09:20:25.643Z,102244.56
2023-05-10T09:23:26.584Z,102243.84
2023-05-10T09:26:27.679Z,102250.91
2023-05-10T09:29:28.818Z,102241.44
2023-05-10T09:32:29.695Z,102241.44
2023-05-10T09:35:31.592Z,102245.03
2023-05-10T09:38:32.843Z,102243.75
2023-05-10T09:41:33.592Z,102233.41
2023-05-10T09:44:34.716Z,102245.41
2023-05-10T09:47:35.631Z,102246.00
2023-05-10T09:50:36.644Z,102238.88
2023-05-10T09:53:37.599Z,102233.16
2023-05-10T09:56:47.663Z,102239.19
2023-05-10T09:59:48.609Z,102234.25
2023-05-10T10:02:49.727Z,102219.88
2023-05-10T10:05:50.607Z,102219.66
2023-05-10T10:08:51.632Z,102220.00
2023-05-10T10:11:52.639Z,102214.47
2023-05-10T10:14:53.668Z,102208.38
2023-05-10T10:17:54.659Z,102212.16
2023-05-10T10:20:55.632Z,102202.13
2023-05-10T10:23:56.619Z,102206.59
2023-05-10T10:26:58.615Z,102194.41
2023-05-10T10:30:06.598Z,102189.13
2023-05-10T10:33:28.752Z,102191.59
2023-05-10T10:36:29.641Z,102189.53
2023-05-10T10:39:30.922Z,102183.78
2023-05-10T10:42:51.605Z,102185.28
2023-05-10T10:45:53.693Z,102170.19
2023-05-10T10:49:04.679Z,102184.50
2023-05-10T10:52:28.646Z,102183.34
2023-05-10T10:55:32.598Z,102175.84
2023-05-10T10:58:53.689Z,102181.97
2023-05-10T11:01:55.582Z,102176.59
2023-05-10T11:04:57.634Z,102171.19
2023-05-10T11:08:11.580Z,102158.84
2023-05-10T11:11:17.650Z,102176.00
2023-05-10T11:14:19.555Z,102168.44
2023-05-10T11:17:40.668Z,102167.19
2023-05-10T11:20:54.553Z,102159.38
2023-05-10T11:23:58.678Z,102165.28
2023-05-10T11:26:59.573Z,102159.44
2023-05-10T11:30:00.604Z,102153.19
2023-05-10T11:33:01.620Z,102159.66
2023-05-10T11:36:02.669Z,102159.88
2023-05-10T11:39:03.575Z,102150.53
2023-05-10T11:42:04.973Z,102156.38
2023-05-10T11:45:05.618Z,102155.81
2023-05-10T11:48:06.754Z,102147.06
2023-05-10T11:51:07.586Z,102138.63
2023-05-10T11:54:10.771Z,102141.84
2023-05-10T11:57:11.581Z,102137.03
2023-05-10T12:00:12.654Z,102131.06
2023-05-10T12:03:14.723Z,102141.91
2023-05-10T12:06:17.613Z,102139.94
2023-05-10T12:09:35.389Z,102127.78
2023-05-10T12:12:36.608Z,102126.84
2023-05-10T12:15:38.597Z,102129.72
2023-05-10T12:18:39.673Z,102113.56
2023-05-10T12:21:42.616Z,102137.34
2023-05-10T12:24:43.647Z,102135.75
2023-05-10T12:27:46.617Z,102122.94
2023-05-10T12:30:47.650Z,102119.47
2023-05-10T12:33:52.625Z,102102.69
2023-05-10T12:36:53.610Z,102105.22
2023-05-10T12:39:55.582Z,102104.63
2023-05-10T12:42:56.847Z,102107.50
2023-05-10T12:45:57.619Z,102102.38
2023-05-10T12:49:09.020Z,102107.38
2023-05-10T12:52:10.620Z,102095.75
2023-05-10T12:55:11.645Z,102093.38
2023-05-10T12:58:17.963Z,102093.88
2023-05-10T13:01:21.726Z,102106.94
2023-05-10T13:04:22.682Z,102103.91
2023-05-10T13:07:23.628Z,102092.81
2023-05-10T13:10:24.604Z,102085.75
2023-05-10T13:13:25.622Z,102089.09
2023-05-10T13:16:26.574Z,102078.00
2023-05-10T13:19:27.633Z,102076.75
2023-05-10T13:22:39.182Z,102079.97
2023-05-10T13:25:41.603Z,102067.94
2023-05-10T13:28:42.555Z,102074.34
2023-05-10T13:31:43.660Z,102082.66
2023-05-10T13:34:44.555Z,102078.69
2023-05-10T13:37:45.610Z,102065.31
2023-05-10T13:40:46.575Z,102076.03
2023-05-10T13:43:47.775Z,102068.91
2023-05-10T13:46:48.661Z,102068.47
2023-05-10T13:49:49.605Z,102065.66
2023-05-10T13:52:51.566Z,102064.13
2023-05-10T13:55:52.594Z,102064.16
2023-05-10T13:58:53.566Z,102069.13
2023-05-10T14:01:54.647Z,102053.28
2023-05-10T14:04:55.568Z,102054.28
2023-05-10T14:07:56.596Z,102048.81
2023-05-10T14:10:58.573Z,102045.66
2023-05-10T14:13:59.602Z,102048.06
2023-05-10T14:17:00.524Z,102039.81
2023-05-10T14:20:01.625Z,102039.41
2023-05-10T14:23:02.560Z,102041.72
2023-05-10T14:26:03.750Z,102042.63
2023-05-10T14:29:04.560Z,102034.03
2023-05-10T14:32:05.661Z,102038.91
2023-05-10T14:35:07.733Z,102042.16
2023-05-10T14:38:08.597Z,102045.09
2023-05-10T14:41:11.718Z,102045.41
2023-05-10T14:44:12.727Z,102045.88
2023-05-10T14:47:13.552Z,102052.84
2023-05-10T14:50:21.705Z,102050.69
2023-05-10T14:53:32.550Z,102035.69
2023-05-10T14:56:35.614Z,102038.28
2023-05-10T14:59:36.560Z,102032.44
2023-05-10T15:02:37.630Z,102038.03
2023-05-10T15:05:38.557Z,102041.53
2023-05-10T15:08:39.576Z,102033.97
2023-05-10T15:11:40.553Z,102030.69
2023-05-10T15:14:41.579Z,102033.72
2023-05-10T15:17:42.601Z,102034.81
2023-05-10T15:20:43.586Z,102020.72
2023-05-10T15:23:44.557Z,102025.66
2023-05-10T15:26:45.585Z,102025.69
2023-05-10T15:29:46.570Z,102009.81
2023-05-10T15:32:47.642Z,102016.88
2023-05-10T15:35:48.570Z,102021.78
2023-05-10T15:38:49.589Z,102010.72
2023-05-10T15:41:50.531Z,102014.28
2023-05-10T15:44:52.730Z,102021.31
2023-05-10T15:47:53.654Z,102019.84
2023-05-10T15:50:54.650Z,102024.59
2023-05-10T15:54:06.305Z,102018.94
2023-05-10T15:57:08.638Z,102026.34
2023-05-10T16:00:11.638Z,102018.88
2023-05-10T16:03:12.707Z,102029.59
2023-05-10T16:06:13.626Z,102027.88
2023-05-10T16:09:14.649Z,102022.00
2023-05-10T16:12:15.641Z,102025.34
2023-05-10T16:15:16.955Z,102026.81
2023-05-10T16:18:17.708Z,102030.34
2023-05-10T16:21:18.649Z,102023.13
2023-05-10T16:24:19.598Z,102026.41
2023-05-10T16:27:20.692Z,102027.00
2023-05-10T16:30:23.607Z,102021.59
2023-05-10T16:33:24.623Z,102029.38
2023-05-10T16:36:25.607Z,102023.44
2023-05-10T16:39:26.711Z,102019.50
2023-05-10T16:42:27.621Z,102022.44
2023-05-10T16:45:28.948Z,102025.91
2023-05-10T16:48:29.616Z,102032.84
2023-05-10T16:51:30.781Z,102033.84
2023-05-10T16:54:31.606Z,102037.00
2023-05-10T16:57:32.638Z,102027.63
2023-05-10T17:00:33.618Z,102030.66
2023-05-10T17:03:34.768Z,102029.72
2023-05-10T17:06:35.611Z,102030.25
2023-05-10T17:09:36.630Z,102033.22
2023-05-10T17:12:37.588Z,102034.53
2023-05-10T17:15:38.752Z,102038.00
2023-05-10T17:18:39.629Z,102035.88
2023-05-10T17:21:40.673Z,102040.25
2023-05-10T17:24:41.600Z,102044.19
2023-05-10T17:27:42.667Z,102040.91
2023-05-10T17:30:43.628Z,102045.66
2023-05-10T17:33:44.739Z,102047.41
2023-05-10T17:36:45.619Z,102043.31
2023-05-10T17:39:47.654Z,102050.88
2023-05-10T17:42:48.593Z,102050.88
2023-05-10T17:45:50.725Z,102055.66
2023-05-10T17:48:51.606Z,102052.53
2023-05-10T17:51:54.644Z,102056.72
2023-05-10T17:54:55.633Z,102054.69
2023-05-10T17:57:56.602Z,102062.41
2023-05-10T18:00:57.669Z,102057.41
2023-05-10T18:03:58.653Z,102051.97
2023-05-10T18:07:01.901Z,102061.09
2023-05-10T18:10:02.626Z,102056.31
2023-05-10T18:13:05.838Z,102063.50
2023-05-10T18:16:07.634Z,102069.53
2023-05-10T18:19:08.744Z,102068.91
2023-05-10T18:22:10.829Z,102063.06
2023-05-10T18:25:11.586Z,102067.38
2023-05-10T18:28:12.639Z,102071.41
2023-05-10T18:31:13.727Z,102070.56
2023-05-10T18:34:14.652Z,102068.38
2023-05-10T18:37:16.558Z,102070.44
2023-05-10T18:40:19.677Z,102073.94
2023-05-10T18:43:20.562Z,102078.69
2023-05-10T18:46:21.878Z,102082.72
2023-05-10T18:49:22.619Z,102081.94
2023-05-10T18:52:23.638Z,102090.84
2023-05-10T18:55:24.692Z,102086.72
2023-05-10T18:58:27.020Z,102090.22
2023-05-10T19:01:27.610Z,102095.66
2023-05-10T19:04:29.177Z,102100.84
2023-05-10T19:07:30.598Z,102100.44
2023-05-10T19:10:31.654Z,102097.38
2023-05-10T19:13:34.701Z,102103.47
2023-05-10T19:16:36.897Z,102098.13
2023-05-10T19:19:37.744Z,102101.16
2023-05-10T19:22:54.280Z,102101.91
2023-05-10T19:26:00.311Z,102106.25
2023-05-10T19:29:04.025Z,102099.28
2023-05-10T19:32:04.586Z,102104.47
2023-05-10T19:35:05.561Z,102114.28
2023-05-10T19:38:06.616Z,102112.25
2023-05-10T19:41:10.587Z,102112.31
2023-05-10T19:44:11.576Z,102126.28
2023-05-10T19:47:12.850Z,102119.31
2023-05-10T19:50:13.558Z,102129.28
2023-05-10T19:53:14.553Z,102123.97
2023-05-10T19:56:18.528Z,102119.91
2023-05-10T19:59:19.528Z,102119.91
2023-05-10T20:02:20.509Z,102124.75
2023-05-10T20:05:21.544Z,102121.44
2023-05-10T20:08:22.508Z,102114.69
2023-05-10T20:11:23.563Z,102126.00
2023-05-10T20:14:24.511Z,102128.84
2023-05-10T20:17:25.622Z,102121.31
2023-05-10T20:20:27.491Z,102123.59
2023-05-10T20:23:28.567Z,102120.78
2023-05-10T20:26:29.508Z,102124.75
2023-05-10T20:29:30.576Z,102126.84
2023-05-10T20:32:31.527Z,102130.81
2023-05-10T20:35:32.550Z,102132.88
2023-05-10T20:38:33.523Z,102128.44
2023-05-10T20:41:34.545Z,102128.59
2023-05-10T20:44:35.509Z,102127.72
2023-05-10T20:47:36.742Z,102135.09
2023-05-10T20:50:37.516Z,102134.91
2023-05-10T20:53:38.539Z,102127.94
2023-05-10T20:56:40.539Z,102134.25
2023-05-10T20:59:41.566Z,102138.16
2023-05-10T21:02:42.513Z,102135.31
2023-05-10T21:05:43.525Z,102141.81
2023-05-10T21:08:44.526Z,102135.94
2023-05-10T21:11:46.581Z,102142.72
2023-05-10T21:14:47.520Z,102137.13
2023-05-10T21:17:48.630Z,102145.31
2023-05-10T21:20:49.524Z,102143.03
2023-05-10T21:23:50.548Z,102150.94
2023-05-10T21:26:51.530Z,102142.13
2023-05-10T21:29:52.565Z,102147.25
2023-05-10T21:32:53.529Z,102145.75
2023-05-10T21:35:54.555Z,102145.13
2023-05-10T21:38:56.479Z,102154.63
2023-05-10T21:41:57.530Z,102151.84
2023-05-10T21:44:58.494Z,102145.31
2023-05-10T21:47:59.729Z,102151.38
2023-05-10T21:51:00.487Z,102145.13
2023-05-10T21:54:01.549Z,102158.56
2023-05-10T21:57:02.474Z,102159.00
2023-05-10T22:00:03.562Z,102162.56
2023-05-10T22:03:05.612Z,102145.31
2023-05-10T22:06:06.546Z,102153.03
2023-05-10T22:09:07.470Z,102154.63
2023-05-10T22:12:08.522Z,102156.38
2023-05-10T22:15:10.751Z,102165.28
2023-05-10T22:18:11.792Z,102164.63
2023-05-10T22:21:12.518Z,102155.06
2023-05-10T22:24:13.523Z,102155.91
2023-05-10T22:27:14.486Z,102153.56
2023-05-10T22:30:15.682Z,102156.53
2023-05-10T22:33:16.506Z,102155.75
2023-05-10T22:36:17.537Z,102154.88
2023-05-10T22:39:18.487Z,102157.91
2023-05-10T22:42:19.598Z,102165.28
2023-05-10T22:45:20.508Z,102157.91
2023-05-10T22:48:21.578Z,102159.50
2023-05-10T22:51:22.490Z,102164.28
2023-05-10T22:54:23.532Z,102172.25
2023-05-10T22:57:24.529Z,102174.84
2023-05-10T23:00:25.543Z,102183.31
2023-05-10T23:03:26.488Z,102183.13
2023-05-10T23:06:27.515Z,102180.72
2023-05-10T23:09:28.472Z,102186.81
2023-05-10T23:12:29.507Z,102184.84
2023-05-10T23:15:30.479Z,102193.56
2023-05-10T23:18:31.571Z,102188.63
2023-05-10T23:21:32.448Z,102186.66
2023-05-10T23:24:33.528Z,102191.13
2023-05-10T23:27:34.495Z,102188.06
2023-05-10T23:30:35.531Z,102193.25
2023-05-10T23:33:36.475Z,102189.56
2023-05-10T23:36:38.508Z,102196.94
2023-05-10T23:39:39.492Z,102202.75
2023-05-10T23:42:40.516Z,102197.16
2023-05-10T23:45:41.574Z,102204.53
2023-05-10T23:48:42.632Z,102198.50
2023-05-10T23:51:43.476Z,102202.78
2023-05-10T23:54:45.953Z,102203.75
2023-05-10T23:57:46.522Z,102197.72
